Time;durP1;ratioP1;P1;durP2;ratioP2;P2;SDS_P1;SDS_P2;PMS_P1;PMS_P2;Temp;Humidity;BMP_temperature;BMP_pressure;BME280_temperature;BME280_humidity;BME280_pressure;Samples;Min_cycle;Max_cycle;Signal;HPM_P1;HPM_P2
2022/06/08 00:00:22;;;;;;;3.90;2.58;;;14.60;99.90;;;;;;5059727;28;20032;-70
2022/06/08 00:03:10;;;;;;;3.95;2.53;;;14.60;99.90;;;;;;5071190;28;20064;-69
2022/06/08 00:05:36;;;;;;;2.80;2.13;;;14.60;99.90;;;;;;5064349;28;20048;-70
2022/06/08 00:08:02;;;;;;;9.50;2.35;;;14.50;99.90;;;;;;5071137;28;20082;-70
2022/06/08 00:10:28;;;;;;;3.63;1.92;;;14.40;99.90;;;;;;5067502;28;20036;-70
2022/06/08 00:12:54;;;;;;;4.20;2.15;;;14.20;99.90;;;;;;5070270;28;20028;-70
2022/06/08 00:15:20;;;;;;;4.80;2.22;;;14.20;99.90;;;;;;5068053;28;20025;-69
2022/06/08 00:17:46;;;;;;;5.95;1.92;;;14.20;99.90;;;;;;5071678;28;20783;-69
2022/06/08 00:20:13;;;;;;;5.72;2.13;;;14.20;99.90;;;;;;5068108;28;20044;-70
2022/06/08 00:22:39;;;;;;;3.70;2.10;;;14.10;99.90;;;;;;5070741;28;20039;-69
2022/06/08 00:25:06;;;;;;;5.50;2.70;;;14.00;99.90;;;;;;5068555;28;20044;-69
2022/06/08 00:27:31;;;;;;;4.28;2.25;;;13.90;99.90;;;;;;5070828;28;20851;-70
2022/06/08 00:29:58;;;;;;;3.03;1.98;;;13.90;99.90;;;;;;5068159;28;20036;-70
2022/06/08 00:32:23;;;;;;;4.70;2.08;;;13.90;99.90;;;;;;5069102;28;20391;-69
2022/06/08 00:34:49;;;;;;;4.05;2.35;;;13.90;99.90;;;;;;5067961;28;20040;-69
2022/06/08 00:37:15;;;;;;;7.38;2.67;;;13.90;99.90;;;;;;5069161;28;20021;-69
2022/06/08 00:39:40;;;;;;;3.22;2.25;;;13.90;99.90;;;;;;5069834;28;20207;-69
2022/06/08 00:42:10;;;;;;;4.80;2.58;;;13.80;99.90;;;;;;5067045;28;20037;-70
2022/06/08 00:44:45;;;;;;;5.05;2.30;;;13.70;99.90;;;;;;5068649;28;20035;-69
2022/06/08 00:47:15;;;;;;;7.45;2.58;;;13.80;99.90;;;;;;5054676;28;20052;-70
2022/06/08 00:50:04;;;;;;;5.53;2.47;;;13.70;99.90;;;;;;5068862;28;20028;-69
2022/06/08 00:52:33;;;;;;;4.80;2.53;;;13.70;99.90;;;;;;5067820;28;20094;-69
2022/06/08 00:55:03;;;;;;;6.07;2.35;;;13.70;99.90;;;;;;5069427;28;20044;-69
2022/06/08 00:57:35;;;;;;;4.30;2.45;;;13.60;99.90;;;;;;5065618;28;20033;-69
2022/06/08 01:00:10;;;;;;;4.30;2.75;;;13.60;99.90;;;;;;5069732;28;20104;-69
2022/06/08 01:02:36;;;;;;;3.50;2.30;;;13.60;99.90;;;;;;5068630;28;20036;-70
2022/06/08 01:05:19;;;;;;;6.22;2.58;;;13.60;99.90;;;;;;5067997;28;20078;-69
2022/06/08 01:07:46;;;;;;;4.68;2.58;;;13.40;99.90;;;;;;5069903;28;20085;-69
2022/06/08 01:10:17;;;;;;;4.00;2.40;;;13.40;99.90;;;;;;5069189;28;20090;-70
2022/06/08 01:12:44;;;;;;;5.07;2.40;;;13.40;99.90;;;;;;5068786;28;20040;-69
2022/06/08 01:15:14;;;;;;;4.30;2.38;;;13.30;99.90;;;;;;5069044;28;20029;-70
2022/06/08 01:17:40;;;;;;;6.25;2.42;;;13.30;99.90;;;;;;5069623;28;20063;-69
2022/06/08 01:20:06;;;;;;;13.30;2.83;;;13.20;99.90;;;;;;5067088;28;20463;-69
2022/06/08 01:22:32;;;;;;;5.72;1.95;;;13.30;99.90;;;;;;5066943;28;20647;-69
2022/06/08 01:24:57;;;;;;;3.55;2.17;;;13.20;99.90;;;;;;5069233;28;20036;-70
2022/06/08 01:27:35;;;;;;;10.00;2.00;;;13.10;99.90;;;;;;5063423;28;20029;-69
2022/06/08 01:30:19;;;;;;;2.17;1.50;;;12.90;99.90;;;;;;5067913;28;20036;-69
2022/06/08 01:33:22;;;;;;;3.83;1.58;;;12.80;99.90;;;;;;5059671;28;20053;-69
2022/06/08 01:36:18;;;;;;;3.00;2.10;;;12.80;99.90;;;;;;5050922;28;20534;-70
2022/06/08 01:39:15;;;;;;;2.92;1.67;;;12.80;99.90;;;;;;5054833;28;20021;-70
2022/06/08 01:42:03;;;;;;;3.97;1.67;;;12.80;99.90;;;;;;5066583;28;20032;-69
2022/06/08 01:45:28;;;;;;;3.20;1.90;;;12.70;99.90;;;;;;5058127;28;20112;-70
2022/06/08 01:47:57;;;;;;;2.13;1.60;;;12.60;99.90;;;;;;5063053;28;20405;-69
2022/06/08 01:50:45;;;;;;;;;;;12.50;99.90;;;;;;5020614;28;20056;-69
2022/06/08 01:53:19;;;;;;;7.30;1.48;;;12.50;99.90;;;;;;5062117;28;19989;-69
2022/06/08 01:55:58;;;;;;;1.85;1.33;;;12.50;99.90;;;;;;5061335;28;20036;-70
2022/06/08 01:58:42;;;;;;;2.00;1.45;;;12.40;99.90;;;;;;5061220;28;20047;-69
2022/06/08 02:01:14;;;;;;;4.25;1.60;;;12.40;99.90;;;;;;5064658;28;20111;-69
2022/06/08 02:04:26;;;;;;;66.13;2.35;;;12.40;99.90;;;;;;5062874;28;20064;-69
2022/06/08 02:07:13;;;;;;;2.58;1.83;;;12.50;99.90;;;;;;5047503;28;20052;-69
2022/06/08 02:09:55;;;;;;;5.78;2.38;;;12.50;99.90;;;;;;5066669;28;20823;-70
2022/06/08 02:12:22;;;;;;;3.03;1.80;;;12.40;99.90;;;;;;5066443;28;20368;-70
2022/06/08 02:15:10;;;;;;;3.05;1.80;;;12.40;99.90;;;;;;5067367;28;20036;-69
2022/06/08 02:17:52;;;;;;;4.15;1.90;;;12.30;99.90;;;;;;5050098;28;20704;-70
2022/06/08 02:20:23;;;;;;;49.72;2.47;;;12.30;99.90;;;;;;5064595;28;20040;-69
2022/06/08 02:22:55;;;;;;;89.78;2.83;;;12.40;99.90;;;;;;5058564;28;20028;-69
2022/06/08 02:25:46;;;;;;;7.15;1.90;;;12.40;99.90;;;;;;5061211;28;20047;-70
2022/06/08 02:28:37;;;;;;;2.50;1.60;;;12.40;99.90;;;;;;5038806;28;20048;-70
2022/06/08 02:31:35;;;;;;;2.78;1.63;;;12.40;99.90;;;;;;5064355;28;20048;-69
2022/06/08 02:34:33;;;;;;;8.60;2.08;;;12.30;99.90;;;;;;5060583;28;20567;-70
2022/06/08 02:37:11;;;;;;;12.48;2.30;;;12.30;99.90;;;;;;5043893;28;20463;-69
2022/06/08 02:39:40;;;;;;;3.15;1.60;;;12.40;99.90;;;;;;5057529;28;20249;-69
2022/06/08 02:42:12;;;;;;;2.97;1.70;;;12.40;99.90;;;;;;5067639;28;20157;-69
2022/06/08 02:44:40;;;;;;;3.70;1.50;;;12.50;99.90;;;;;;5065991;28;20032;-69
2022/06/08 02:47:19;;;;;;;2.63;1.70;;;12.50;99.90;;;;;;5063967;28;20137;-69
2022/06/08 02:49:44;;;;;;;2.80;1.95;;;12.50;99.90;;;;;;5061125;28;20039;-70
2022/06/08 02:52:19;;;;;;;3.10;1.73;;;12.50;99.90;;;;;;5065703;28;20048;-70
2022/06/08 02:54:46;;;;;;;6.10;2.00;;;12.50;99.90;;;;;;5065555;28;20032;-70
2022/06/08 02:57:39;;;;;;;4.10;2.15;;;12.50;99.90;;;;;;5064823;28;20846;-70
2022/06/08 03:00:24;;;;;;;4.40;1.95;;;12.50;99.90;;;;;;5051318;28;20036;-70
2022/06/08 03:03:07;;;;;;;3.58;1.77;;;12.60;99.90;;;;;;5046408;28;20467;-70
2022/06/08 03:05:39;;;;;;;4.53;1.95;;;12.60;99.90;;;;;;5062108;28;20048;-70
2022/06/08 03:08:19;;;;;;;2.53;1.60;;;12.60;99.90;;;;;;5065043;28;20024;-70
2022/06/08 03:10:46;;;;;;;2.38;1.52;;;12.50;99.90;;;;;;5066789;28;20111;-70
2022/06/08 03:13:20;;;;;;;1.95;1.20;;;12.40;99.90;;;;;;5067933;28;20037;-70
2022/06/08 03:15:53;;;;;;;5.38;1.60;;;12.40;99.90;;;;;;5059139;28;20055;-70
2022/06/08 03:18:19;;;;;;;1.75;1.25;;;12.40;99.90;;;;;;5062451;28;20557;-70
2022/06/08 03:20:45;;;;;;;7.35;1.50;;;12.50;99.90;;;;;;5060864;28;20033;-70
2022/06/08 03:23:11;;;;;;;6.13;1.70;;;12.50;99.90;;;;;;5048202;28;20036;-70
2022/06/08 03:25:37;;;;;;;6.03;1.98;;;12.60;99.90;;;;;;5056407;28;20031;-70
2022/06/08 03:28:03;;;;;;;3.17;1.88;;;12.60;99.90;;;;;;5067067;28;20032;-70
2022/06/08 03:30:28;;;;;;;3.92;1.67;;;12.70;99.90;;;;;;5065733;28;20036;-70
2022/06/08 03:32:54;;;;;;;4.22;1.80;;;12.60;99.90;;;;;;5067761;28;20499;-70
2022/06/08 03:35:20;;;;;;;3.78;1.67;;;12.60;99.90;;;;;;5065121;28;20060;-70
2022/06/08 03:37:46;;;;;;;2.85;1.65;;;12.70;99.90;;;;;;5065956;28;20430;-70
2022/06/08 03:40:12;;;;;;;4.88;1.75;;;12.70;99.90;;;;;;5065531;28;20041;-70
2022/06/08 03:42:38;;;;;;;2.85;1.65;;;12.60;99.90;;;;;;5066011;28;20028;-70
2022/06/08 03:45:05;;;;;;;2.63;1.65;;;12.60;99.90;;;;;;5066843;28;20058;-70
2022/06/08 03:47:38;;;;;;;4.80;2.03;;;12.60;99.90;;;;;;5046009;28;20029;-70
2022/06/08 03:50:08;;;;;;;2.33;1.60;;;12.70;99.90;;;;;;5066357;28;20119;-70
2022/06/08 03:52:38;;;;;;;5.85;1.88;;;12.70;99.90;;;;;;5063709;28;20029;-70
2022/06/08 03:55:06;;;;;;;5.60;1.90;;;12.70;99.90;;;;;;5059362;28;21153;-70
2022/06/08 03:57:33;;;;;;;4.28;1.70;;;12.70;99.90;;;;;;5062134;28;20037;-70
2022/06/08 04:00:00;;;;;;;7.85;2.08;;;12.70;99.90;;;;;;5065610;28;20063;-70
2022/06/08 04:02:28;;;;;;;7.85;2.00;;;12.70;99.90;;;;;;5058808;28;20785;-72
2022/06/08 04:04:53;;;;;;;5.00;1.75;;;12.70;99.90;;;;;;5030172;28;20029;-73
2022/06/08 04:07:19;;;;;;;6.53;2.00;;;12.70;99.90;;;;;;5047796;28;20513;-70
2022/06/08 04:09:45;;;;;;;3.97;1.85;;;12.80;99.90;;;;;;5066094;28;20032;-70
2022/06/08 04:12:11;;;;;;;4.70;2.60;;;12.90;99.90;;;;;;5067993;28;20470;-70
2022/06/08 04:14:37;;;;;;;8.18;2.00;;;12.90;99.90;;;;;;5067027;28;20064;-70
2022/06/08 04:17:03;;;;;;;6.80;2.03;;;12.90;99.90;;;;;;5071429;28;20065;-70
2022/06/08 04:19:29;;;;;;;4.97;2.25;;;13.00;99.90;;;;;;5069452;28;20036;-70
2022/06/08 04:21:55;;;;;;;5.35;2.17;;;12.90;99.90;;;;;;5071592;28;20029;-70
2022/06/08 04:24:22;;;;;;;3.53;1.88;;;12.90;99.90;;;;;;5071539;28;20429;-70
2022/06/08 04:26:48;;;;;;;2.95;2.10;;;13.00;99.90;;;;;;5070843;28;20036;-70
2022/06/08 04:29:14;;;;;;;3.10;2.05;;;13.00;99.90;;;;;;5070477;28;20066;-70
2022/06/08 04:31:40;;;;;;;5.97;2.53;;;13.10;99.90;;;;;;5069175;28;20064;-70
2022/06/08 04:34:09;;;;;;;7.07;2.40;;;13.20;99.90;;;;;;5071282;28;20047;-70
2022/06/08 04:36:35;;;;;;;3.85;2.42;;;13.30;99.90;;;;;;5070141;28;20024;-70
2022/06/08 04:39:01;;;;;;;5.15;2.38;;;13.40;99.90;;;;;;5062444;28;20032;-72
2022/06/08 04:41:27;;;;;;;4.43;2.03;;;13.50;99.90;;;;;;5050336;28;20029;-66
2022/06/08 04:43:54;;;;;;;5.97;2.08;;;13.50;99.90;;;;;;5059064;28;20482;-67
2022/06/08 04:46:20;;;;;;;8.90;2.33;;;13.60;99.90;;;;;;5070713;28;20060;-65
2022/06/08 04:48:47;;;;;;;5.53;2.45;;;13.60;99.90;;;;;;5065478;28;20087;-66
2022/06/08 04:51:15;;;;;;;5.15;2.25;;;13.50;99.90;;;;;;5068402;28;20156;-60
2022/06/08 04:53:43;;;;;;;4.60;1.80;;;13.60;99.90;;;;;;5069071;28;20059;-60
2022/06/08 04:56:10;;;;;;;5.55;2.00;;;13.60;99.90;;;;;;5068551;28;20386;-62
2022/06/08 04:58:36;;;;;;;4.45;2.00;;;13.70;99.90;;;;;;5068919;28;20406;-63
2022/06/08 05:01:03;;;;;;;5.60;2.08;;;13.80;99.90;;;;;;5068986;28;20029;-60
2022/06/08 05:03:30;;;;;;;3.42;2.13;;;13.70;99.90;;;;;;5066846;28;20463;-61
2022/06/08 05:05:57;;;;;;;2.95;1.77;;;13.70;99.90;;;;;;5069026;28;20036;-61
2022/06/08 05:08:23;;;;;;;4.05;2.10;;;13.70;99.90;;;;;;5068661;28;20079;-62
2022/06/08 05:10:50;;;;;;;6.10;2.63;;;13.90;99.90;;;;;;5068736;28;20033;-61
2022/06/08 05:13:17;;;;;;;4.32;2.67;;;14.00;99.90;;;;;;5070685;28;20033;-61
2022/06/08 05:15:44;;;;;;;7.88;3.05;;;14.20;99.90;;;;;;5067179;28;20032;-61
2022/06/08 05:18:12;;;;;;;6.22;3.08;;;14.30;99.90;;;;;;5068425;28;20028;-62
2022/06/08 05:20:40;;;;;;;5.43;2.20;;;14.40;99.90;;;;;;5069757;28;20032;-63
2022/06/08 05:23:11;;;;;;;3.50;2.03;;;14.50;99.90;;;;;;5067021;28;20473;-61
2022/06/08 05:25:39;;;;;;;5.43;2.47;;;14.50;99.90;;;;;;5069519;28;20064;-61
2022/06/08 05:28:06;;;;;;;5.78;2.40;;;14.60;99.90;;;;;;5061221;28;20078;-63
2022/06/08 05:30:33;;;;;;;9.13;2.50;;;14.60;99.90;;;;;;5067202;28;20033;-61
2022/06/08 05:33:03;;;;;;;3.90;2.03;;;14.70;99.90;;;;;;5066213;28;20428;-61
2022/06/08 05:35:29;;;;;;;6.47;2.30;;;14.80;99.90;;;;;;5048386;28;20044;-61
2022/06/08 05:37:55;;;;;;;3.92;2.35;;;14.90;99.90;;;;;;5060065;28;20278;-62
2022/06/08 05:40:22;;;;;;;6.60;2.80;;;15.00;99.90;;;;;;5069832;28;20101;-62
2022/06/08 05:42:48;;;;;;;5.18;2.60;;;15.10;99.90;;;;;;5067919;28;20058;-62
2022/06/08 05:45:24;;;;;;;8.25;2.20;;;15.10;99.90;;;;;;5066739;28;20028;-62
2022/06/08 05:47:51;;;;;;;7.53;3.20;;;15.10;99.90;;;;;;5066030;28;20037;-62
2022/06/08 05:50:18;;;;;;;5.28;2.53;;;15.20;99.90;;;;;;5069443;28;20146;-62
2022/06/08 05:52:43;;;;;;;5.10;2.55;;;15.30;99.90;;;;;;5059378;28;20728;-62
2022/06/08 05:55:11;;;;;;;7.75;2.30;;;15.30;99.90;;;;;;5063347;28;20033;-62
2022/06/08 05:57:36;;;;;;;3.97;2.75;;;15.30;99.90;;;;;;5068359;28;20111;-62
2022/06/08 06:00:08;;;;;;;8.27;2.95;;;15.50;99.90;;;;;;5065917;28;20124;-62
2022/06/08 06:02:34;;;;;;;9.20;3.08;;;15.60;99.90;;;;;;5050446;28;20032;-63
2022/06/08 06:04:59;;;;;;;5.22;2.83;;;15.80;99.90;;;;;;5066142;28;20035;-63
2022/06/08 06:07:25;;;;;;;5.72;3.05;;;15.90;99.90;;;;;;5068470;28;20032;-62
2022/06/08 06:09:51;;;;;;;6.85;2.90;;;16.00;99.90;;;;;;5065772;28;20694;-62
2022/06/08 06:12:18;;;;;;;4.45;2.65;;;16.10;99.90;;;;;;5069020;28;20033;-63
2022/06/08 06:14:45;;;;;;;6.20;2.50;;;16.20;99.90;;;;;;5068807;28;20031;-63
2022/06/08 06:17:11;;;;;;;4.55;2.63;;;16.20;99.90;;;;;;5067711;28;20040;-64
2022/06/08 06:19:36;;;;;;;8.88;2.58;;;16.40;99.90;;;;;;5065553;28;20044;-63
2022/06/08 06:22:04;;;;;;;7.68;2.60;;;16.60;99.90;;;;;;5066029;28;20048;-63
2022/06/08 06:24:31;;;;;;;5.90;2.40;;;16.80;99.90;;;;;;5063892;28;20033;-63
2022/06/08 06:26:57;;;;;;;5.53;2.30;;;17.00;99.90;;;;;;5050886;28;20394;-63
2022/06/08 06:29:23;;;;;;;7.00;2.25;;;17.10;99.90;;;;;;5063085;28;20040;-63
2022/06/08 06:31:56;;;;;;;4.80;2.00;;;17.20;99.90;;;;;;5047869;28;20052;-63
2022/06/08 06:34:24;;;;;;;4.82;2.08;;;17.30;99.90;;;;;;5060288;28;20111;-63
2022/06/08 06:36:54;;;;;;;6.18;2.20;;;17.20;99.90;;;;;;5059728;28;20502;-63
2022/06/08 06:39:21;;;;;;;3.47;2.08;;;17.20;99.90;;;;;;5041666;28;20045;-63
2022/06/08 06:41:48;;;;;;;4.57;2.00;;;17.20;99.90;;;;;;5065840;28;20444;-63
2022/06/08 06:44:15;;;;;;;4.82;2.00;;;17.20;99.90;;;;;;5066647;28;20039;-63
2022/06/08 06:46:40;;;;;;;3.40;2.00;;;17.40;99.90;;;;;;5062430;28;20041;-63
2022/06/08 06:49:06;;;;;;;2.83;1.33;;;17.40;99.90;;;;;;5061476;28;20383;-63
2022/06/08 06:51:34;;;;;;;6.50;1.70;;;17.40;99.90;;;;;;5065295;28;20032;-64
2022/06/08 06:54:04;;;;;;;4.85;1.70;;;17.50;99.90;;;;;;5053351;28;20037;-63
2022/06/08 06:56:30;;;;;;;7.75;1.80;;;17.50;99.90;;;;;;5062232;28;20501;-63
2022/06/08 06:58:56;;;;;;;6.32;1.77;;;17.60;99.90;;;;;;5065663;28;20761;-63
2022/06/08 07:01:22;;;;;;;3.65;1.30;;;17.70;99.90;;;;;;5059604;28;20040;-62
2022/06/08 07:03:47;;;;;;;5.32;1.48;;;17.70;99.90;;;;;;5061750;28;20032;-63
2022/06/08 07:06:13;;;;;;;12.27;2.00;;;17.60;99.90;;;;;;5062746;28;20470;-63
2022/06/08 07:08:39;;;;;;;8.27;2.00;;;17.70;99.90;;;;;;5066058;28;20029;-63
2022/06/08 07:13:50;;;;;;;8.60;1.98;;;17.90;99.90;;;;;;5061323;28;20533;-63
2022/06/08 07:16:16;;;;;;;4.20;2.03;;;18.10;99.90;;;;;;5048580;28;20036;-62
2022/06/08 07:18:42;;;;;;;10.27;2.08;;;18.10;99.90;;;;;;5052821;28;20044;-63
2022/06/08 07:21:09;;;;;;;8.07;1.75;;;18.00;99.90;;;;;;5068544;28;20037;-62
2022/06/08 07:23:35;;;;;;;5.63;1.58;;;18.10;99.90;;;;;;5067639;28;20364;-64
2022/06/08 07:26:01;;;;;;;7.68;1.63;;;18.10;99.90;;;;;;5052818;28;20044;-63
2022/06/08 07:28:27;;;;;;;4.40;1.38;;;18.20;99.90;;;;;;5051293;28;20037;-63
2022/06/08 07:30:52;;;;;;;4.25;1.40;;;18.20;99.90;;;;;;5067245;28;20061;-63
2022/06/08 07:33:19;;;;;;;4.55;1.67;;;18.20;99.90;;;;;;5066254;28;20040;-63
2022/06/08 07:35:46;;;;;;;3.28;1.40;;;18.30;99.90;;;;;;5066968;28;20067;-63
2022/06/08 07:38:11;;;;;;;6.43;1.63;;;18.40;99.90;;;;;;5067411;28;20455;-63
2022/06/08 07:40:37;;;;;;;7.10;1.60;;;18.60;99.90;;;;;;5067518;28;20032;-64
2022/06/08 07:43:03;;;;;;;7.53;1.70;;;18.70;99.90;;;;;;5051752;28;20042;-63
2022/06/08 07:45:30;;;;;;;4.05;1.42;;;18.60;99.90;;;;;;5038772;28;20384;-63
2022/06/08 07:50:41;;;;;;;5.35;1.90;;;19.00;99.90;;;;;;5052490;28;20074;-63
2022/06/08 07:53:08;;;;;;;7.93;1.60;;;19.10;99.90;;;;;;5058916;28;20039;-63
2022/06/08 07:55:34;;;;;;;5.43;1.70;;;19.40;99.90;;;;;;5068507;28;20020;-64
2022/06/08 07:58:02;;;;;;;16.20;2.17;;;19.40;99.90;;;;;;5067148;28;20039;-63
2022/06/08 08:00:28;;;;;;;5.80;1.50;;;19.40;99.90;;;;;;5066043;28;20040;-63
2022/06/08 08:02:54;;;;;;;4.93;1.60;;;19.30;99.90;;;;;;5053695;28;20094;-64
2022/06/08 08:05:22;;;;;;;3.72;1.73;;;19.40;99.90;;;;;;5070960;28;20060;-63
2022/06/08 08:07:48;;;;;;;6.43;1.83;;;19.20;99.90;;;;;;5053053;28;20767;-63
2022/06/08 08:10:20;;;;;;;4.22;1.48;;;19.30;99.90;;;;;;5070142;28;20107;-63
2022/06/08 08:12:46;;;;;;;7.00;1.60;;;19.30;99.90;;;;;;5070803;28;20066;-63
2022/06/08 08:15:13;;;;;;;4.35;1.60;;;19.40;99.90;;;;;;5071649;28;20078;-63
2022/06/08 08:17:41;;;;;;;4.15;1.40;;;19.70;99.90;;;;;;5071066;28;20028;-64
2022/06/08 08:20:08;;;;;;;10.52;1.73;;;19.70;99.90;;;;;;5070290;28;20438;-64
2022/06/08 08:22:33;;;;;;;9.90;2.08;;;19.80;99.90;;;;;;5071731;28;20111;-64
2022/06/08 08:24:59;;;;;;;4.65;1.58;;;19.90;99.90;;;;;;5070223;28;20489;-63
2022/06/08 08:27:25;;;;;;;4.60;1.40;;;19.90;99.90;;;;;;5059070;28;20025;-63
2022/06/08 08:29:51;;;;;;;3.90;1.50;;;20.00;99.90;;;;;;5060282;28;20090;-63
2022/06/08 08:32:17;;;;;;;5.93;1.38;;;20.00;99.90;;;;;;5071289;28;20067;-64
2022/06/08 08:34:43;;;;;;;4.28;1.40;;;19.90;99.90;;;;;;5070933;28;20132;-64
2022/06/08 08:37:09;;;;;;;1.88;1.27;;;20.00;99.90;;;;;;5071449;28;20510;-63
2022/06/08 08:39:35;;;;;;;1.52;1.10;;;20.20;99.90;;;;;;5068371;28;20573;-63
2022/06/08 08:44:50;;;;;;;2.35;1.10;;;20.40;99.90;;;;;;5050537;28;20489;-63
2022/06/08 08:47:21;;;;;;;5.35;1.10;;;20.60;99.90;;;;;;5051273;28;20033;-63
2022/06/08 08:49:56;;;;;;;5.07;1.20;;;20.60;99.90;;;;;;5058459;28;20441;-64
2022/06/08 08:52:57;;;;;;;6.95;1.10;;;20.40;99.90;;;;;;5071227;28;20036;-64
2022/06/08 08:55:26;;;;;;;2.97;1.20;;;20.40;99.90;;;;;;5070987;28;20047;-64
2022/06/08 08:58:07;;;;;;;2.83;1.30;;;20.30;99.90;;;;;;5052360;28;20031;-64
2022/06/08 09:00:37;;;;;;;5.18;1.42;;;20.70;99.90;;;;;;5065309;28;20517;-65
2022/06/08 09:03:25;;;;;;;2.50;0.90;;;20.60;99.90;;;;;;5070009;28;20028;-65
2022/06/08 09:05:55;;;;;;;6.68;1.38;;;20.70;99.90;;;;;;5070146;28;20039;-64
2022/06/08 09:08:22;;;;;;;4.25;1.33;;;20.70;99.90;;;;;;5069560;28;20107;-64
2022/06/08 09:10:49;;;;;;;4.25;1.35;;;20.70;99.90;;;;;;5066903;28;20032;-64
2022/06/08 09:13:23;;;;;;;5.07;1.05;;;21.00;99.90;;;;;;5061978;28;20384;-65
2022/06/08 09:15:56;;;;;;;8.05;1.20;;;21.00;99.90;;;;;;5063332;28;20036;-64
2022/06/08 09:18:39;;;;;;;4.10;1.13;;;21.10;99.90;;;;;;5065059;28;20125;-63
2022/06/08 09:21:29;;;;;;;3.45;1.15;;;21.20;99.90;;;;;;5068026;28;20035;-64
2022/06/08 09:23:58;;;;;;;9.98;1.50;;;21.20;99.90;;;;;;5068610;28;20033;-64
2022/06/08 09:26:24;;;;;;;5.72;1.08;;;21.40;99.90;;;;;;5067590;28;20040;-67
2022/06/08 09:29:20;;;;;;;4.25;1.10;;;21.20;99.90;;;;;;5065291;28;20363;-64
2022/06/08 09:31:47;;;;;;;1.90;1.02;;;20.80;99.90;;;;;;5059331;28;20048;-64
2022/06/08 09:34:27;;;;;;;6.03;1.45;;;20.50;99.90;;;;;;5059179;28;20036;-64
2022/06/08 09:37:12;;;;;;;3.00;1.02;;;20.30;99.90;;;;;;5062501;28;20486;-64
2022/06/08 09:39:41;;;;;;;5.70;1.52;;;20.20;99.90;;;;;;5067955;28;20486;-64
2022/06/08 09:42:21;;;;;;;5.30;1.70;;;20.00;99.90;;;;;;5068338;28;20170;-64
2022/06/08 09:45:03;;;;;;;2.90;1.30;;;20.10;99.90;;;;;;5060869;28;20029;-64
2022/06/08 09:51:26;;;;;;;5.47;1.27;;;20.20;99.90;;;;;;5070474;28;20031;-64
2022/06/08 09:54:19;;;;;;;7.55;1.30;;;20.30;99.90;;;;;;4994849;28;20045;-64
2022/06/08 09:57:24;;;;;;;3.45;1.40;;;20.30;99.90;;;;;;5061961;28;20025;-65
2022/06/08 10:00:17;;;;;;;2.78;1.10;;;20.30;99.90;;;;;;5067341;28;20047;-64
2022/06/08 10:03:18;;;;;;;6.70;1.40;;;20.40;99.90;;;;;;5059004;28;20087;-65
2022/06/08 10:05:46;;;;;;;5.63;1.30;;;20.20;99.90;;;;;;5065162;28;20036;-65
2022/06/08 10:08:38;;;;;;;3.38;1.52;;;20.30;99.90;;;;;;5054193;28;20037;-64
2022/06/08 10:11:34;;;;;;;4.03;1.27;;;20.50;99.90;;;;;;5054897;28;20027;-64
2022/06/08 10:14:36;;;;;;;3.83;1.17;;;20.80;99.90;;;;;;5067953;28;20119;-64
2022/06/08 10:17:11;;;;;;;4.20;1.45;;;21.00;99.90;;;;;;5063684;28;20054;-64
2022/06/08 10:19:55;;;;;;;4.85;1.20;;;21.20;99.90;;;;;;5060715;28;20041;-64
2022/06/08 10:22:24;;;;;;;4.38;0.90;;;21.30;99.90;;;;;;5054083;28;20089;-64
2022/06/08 10:24:53;;;;;;;2.67;0.90;;;21.30;99.90;;;;;;5062004;28;20052;-65
2022/06/08 10:27:29;;;;;;;3.92;1.20;;;21.50;99.90;;;;;;5049240;28;20037;-65
2022/06/08 10:30:16;;;;;;;1.73;0.85;;;21.40;99.90;;;;;;5049188;28;20395;-64
2022/06/08 10:32:52;;;;;;;2.60;0.90;;;21.50;99.90;;;;;;5056527;28;20106;-64
2022/06/08 10:35:23;;;;;;;6.63;0.95;;;21.50;99.90;;;;;;5069163;28;20040;-64
2022/06/08 10:37:50;;;;;;;4.10;1.00;;;21.30;98.40;;;;;;5068148;28;20082;-64
2022/06/08 10:40:36;;;;;;;3.85;0.90;;;21.10;99.90;;;;;;5068889;28;20036;-63
2022/06/08 10:43:03;;;;;;;3.03;1.00;;;21.20;99.90;;;;;;5062516;28;20029;-64
2022/06/08 10:45:45;;;;;;;2.13;1.08;;;21.30;99.10;;;;;;5068929;28;20371;-65
2022/06/08 10:48:11;;;;;;;3.67;1.40;;;21.60;99.90;;;;;;5068626;28;20029;-64
2022/06/08 10:50:44;;;;;;;4.13;1.10;;;22.10;99.90;;;;;;5068948;28;20035;-63
2022/06/08 10:56:23;;;;;;;3.03;1.08;;;22.60;99.30;;;;;;5068897;28;20023;-64
2022/06/08 10:59:17;;;;;;;2.22;1.00;;;22.60;96.70;;;;;;5067931;28;20060;-66
2022/06/08 11:02:22;;;;;;;1.88;0.65;;;22.40;96.50;;;;;;5067891;28;20413;-66
2022/06/08 11:05:06;;;;;;;2.15;0.82;;;22.30;96.20;;;;;;5036964;28;20053;-66
2022/06/08 11:08:06;;;;;;;4.82;1.20;;;22.40;96.30;;;;;;5048727;28;20028;-64
2022/06/08 11:10:44;;;;;;;2.97;0.98;;;22.20;94.90;;;;;;5048566;28;20025;-64
2022/06/08 11:13:27;;;;;;;3.80;0.80;;;21.80;95.90;;;;;;5064574;28;20835;-65
2022/06/08 11:15:56;;;;;;;1.45;0.80;;;21.80;96.40;;;;;;5067899;28;20064;-64
2022/06/08 11:18:31;;;;;;;4.03;0.98;;;22.00;96.50;;;;;;5068537;28;20103;-63
2022/06/08 11:21:22;;;;;;;4.35;0.90;;;22.20;95.40;;;;;;5066951;28;20035;-64
2022/06/08 11:23:59;;;;;;;2.47;1.10;;;22.30;95.40;;;;;;5061452;28;20033;-66
2022/06/08 11:26:37;;;;;;;2.47;1.00;;;22.50;96.20;;;;;;5068574;28;20032;-64
2022/06/08 11:29:18;;;;;;;1.63;1.05;;;22.50;91.70;;;;;;5067655;28;20561;-64
2022/06/08 11:31:43;;;;;;;3.75;1.08;;;22.40;94.50;;;;;;5066359;28;20051;-64
2022/06/08 11:34:21;;;;;;;2.38;0.77;;;22.40;92.80;;;;;;5067636;28;20025;-64
2022/06/08 11:36:58;;;;;;;3.10;0.95;;;22.70;93.40;;;;;;5067714;28;20623;-65
2022/06/08 11:39:44;;;;;;;2.20;0.80;;;22.70;91.70;;;;;;5067887;28;20037;-64
2022/06/08 11:42:24;;;;;;;3.88;0.90;;;23.00;95.00;;;;;;5066322;28;20664;-64
2022/06/08 11:44:52;;;;;;;;;;;23.20;91.50;;;;;;5068210;28;20025;-65
2022/06/08 11:47:26;;;;;;;1.92;0.70;;;23.10;91.90;;;;;;5068352;28;20717;-66
2022/06/08 11:50:12;;;;;;;4.40;0.90;;;23.40;96.20;;;;;;5055234;28;20044;-65
2022/06/08 11:52:42;;;;;;;2.15;0.80;;;24.00;93.60;;;;;;5058792;28;20028;-65
2022/06/08 11:55:21;;;;;;;;;;;24.10;85.10;;;;;;5065402;28;20028;-65
2022/06/08 11:57:54;;;;;;;2.22;0.80;;;23.50;81.80;;;;;;5068197;28;19908;-65
2022/06/08 12:00:27;;;;;;;1.40;0.90;;;23.20;88.70;;;;;;5067998;28;20045;-65
2022/06/08 12:03:00;;;;;;;2.20;0.80;;;23.30;90.30;;;;;;5067485;28;20040;-66
2022/06/08 12:05:31;;;;;;;2.00;0.88;;;23.30;88.80;;;;;;5067174;28;20033;-65
2022/06/08 12:07:57;;;;;;;4.00;1.02;;;23.00;86.50;;;;;;5056559;28;20037;-65
2022/06/08 12:10:26;;;;;;;7.03;1.00;;;22.90;90.90;;;;;;5067767;28;20134;-65
2022/06/08 12:12:54;;;;;;;4.80;1.20;;;23.20;91.60;;;;;;5067670;28;20120;-66
2022/06/08 12:15:43;;;;;;;4.25;1.05;;;23.70;91.60;;;;;;5055188;28;20072;-65
2022/06/08 12:18:24;;;;;;;6.93;1.10;;;23.60;90.50;;;;;;5047053;28;20466;-65
2022/06/08 12:21:12;;;;;;;2.25;0.95;;;23.60;87.50;;;;;;5047682;28;20033;-66
2022/06/08 12:23:42;;;;;;;5.85;1.30;;;23.50;84.90;;;;;;5048543;28;20033;-65
2022/06/08 12:26:20;;;;;;;3.17;1.00;;;23.70;87.40;;;;;;5067194;28;20020;-65
2022/06/08 12:29:10;;;;;;;3.00;1.00;;;24.20;83.00;;;;;;5067944;28;20605;-65
2022/06/08 12:31:35;;;;;;;4.82;0.90;;;24.20;77.10;;;;;;5053579;28;20053;-64
2022/06/08 12:34:23;;;;;;;4.60;1.10;;;24.40;79.10;;;;;;5062787;28;20037;-65
2022/06/08 12:36:49;;;;;;;2.50;0.80;;;24.10;81.50;;;;;;5069335;28;20017;-65
2022/06/08 12:39:18;;;;;;;4.70;1.00;;;23.60;79.60;;;;;;5070537;28;20374;-64
2022/06/08 12:41:50;;;;;;;4.65;0.80;;;23.30;87.10;;;;;;5071006;28;20382;-65
2022/06/08 12:44:24;;;;;;;2.38;0.85;;;23.20;85.90;;;;;;5065912;28;20141;-65
2022/06/08 12:46:57;;;;;;;2.70;1.00;;;23.20;82.50;;;;;;5051189;28;20135;-64
2022/06/08 12:49:26;;;;;;;2.58;0.80;;;23.50;89.60;;;;;;5051010;28;20033;-64
2022/06/08 12:51:59;;;;;;;4.13;0.80;;;24.00;86.50;;;;;;5051405;28;20033;-67
2022/06/08 12:54:32;;;;;;;1.27;0.70;;;24.00;80.50;;;;;;5058301;28;20033;-66
2022/06/08 12:57:13;;;;;;;1.20;0.80;;;24.30;78.50;;;;;;5070120;28;20497;-66
2022/06/08 12:59:43;;;;;;;4.70;0.80;;;24.20;78.10;;;;;;5070902;28;20071;-66
2022/06/08 13:02:21;;;;;;;4.88;0.90;;;23.90;80.50;;;;;;5068598;28;20041;-64
2022/06/08 13:04:49;;;;;;;3.90;0.90;;;23.80;78.70;;;;;;5052288;28;20056;-66
2022/06/08 13:07:19;;;;;;;2.08;0.95;;;23.90;80.80;;;;;;5049943;28;20063;-65
2022/06/08 13:09:47;;;;;;;2.03;0.80;;;23.80;80.20;;;;;;5050747;28;20063;-65
2022/06/08 13:12:20;;;;;;;11.27;1.20;;;23.70;78.40;;;;;;5051529;28;20029;-64
2022/06/08 13:14:46;;;;;;;7.60;1.30;;;23.40;78.30;;;;;;5063497;28;20032;-64
2022/06/08 13:17:13;;;;;;;2.33;1.02;;;23.10;83.90;;;;;;5066081;28;20482;-65
2022/06/08 13:19:39;;;;;;;2.83;1.05;;;22.90;83.00;;;;;;5070602;28;20074;-64
2022/06/08 13:22:05;;;;;;;4.32;1.10;;;22.80;85.80;;;;;;5068118;28;20379;-64
2022/06/08 13:24:31;;;;;;;2.55;0.90;;;22.50;86.80;;;;;;5050270;28;20471;-64
2022/06/08 13:26:57;;;;;;;3.58;1.10;;;22.40;89.40;;;;;;5049984;28;20032;-66
2022/06/08 13:29:23;;;;;;;5.90;1.13;;;22.50;91.80;;;;;;5050493;28;20037;-64